Time;durP1;ratioP1;P1;durP2;ratioP2;P2;SDS_P1;SDS_P2;PMS_P1;PMS_P2;Temp;Humidity;BMP_temperature;BMP_pressure;BME280_temperature;BME280_humidity;BME280_pressure;Samples;Min_cycle;Max_cycle;Signal;HPM_P1;HPM_P2
2023/04/06 00:01:39;;;;;;;10.23;2.70;;;;;;;;;;5048915;28;20914;-61
2023/04/06 00:04:06;;;;;;;6.47;2.60;;;;;;;;;;5057782;28;20044;-61
2023/04/06 00:06:32;;;;;;;8.07;2.40;;;;;;;;;;5057454;28;20785;-63
2023/04/06 00:09:00;;;;;;;8.45;2.67;;;;;;;;;;5058843;28;20161;-60
2023/04/06 00:11:26;;;;;;;6.60;2.20;;;;;;;;;;5044975;28;20106;-62
2023/04/06 00:13:52;;;;;;;6.82;2.63;;;;;;;;;;5066552;28;20055;-61
2023/04/06 00:16:58;;;;;;;10.52;2.63;;;;;;;;;;5062509;28;20118;-62
2023/04/06 00:20:38;;;;;;;6.57;2.33;;;;;;;;;;5057831;28;20075;-63
2023/04/06 00:23:24;;;;;;;5.68;2.72;;;;;;;;;;5062108;28;20052;-62
2023/04/06 00:25:50;;;;;;;10.75;3.22;;;;;;;;;;5064643;28;20054;-61
2023/04/06 00:28:16;;;;;;;7.88;3.08;;;;;;;;;;5048261;28;20114;-63
2023/04/06 00:30:42;;;;;;;4.95;2.38;;;;;;;;;;5057913;28;20106;-62
2023/04/06 00:33:08;;;;;;;5.55;2.30;;;;;;;;;;5057698;28;20101;-62
2023/04/06 00:35:34;;;;;;;5.32;2.22;;;;;;;;;;5065228;28;20056;-61
2023/04/06 00:38:00;;;;;;;6.25;2.55;;;;;;;;;;5063920;28;20119;-62
2023/04/06 00:40:28;;;;;;;6.10;2.92;;;;;;;;;;5066131;28;20048;-63
2023/04/06 00:42:54;;;;;;;16.75;2.72;;;;;;;;;;5066155;28;20040;-59
2023/04/06 00:45:20;;;;;;;10.43;2.97;;;;;;;;;;5065967;28;20059;-61
2023/04/06 00:47:47;;;;;;;7.07;2.35;;;;;;;;;;5066031;28;20052;-60
2023/04/06 00:50:12;;;;;;;6.68;2.95;;;;;;;;;;5061004;28;20043;-63
2023/04/06 00:52:39;;;;;;;8.13;2.78;;;;;;;;;;5058612;28;20144;-62
2023/04/06 00:55:05;;;;;;;8.98;2.63;;;;;;;;;;5066722;28;20056;-61
2023/04/06 00:57:32;;;;;;;9.75;3.22;;;;;;;;;;5065441;28;20111;-62
2023/04/06 00:59:57;;;;;;;9.77;3.10;;;;;;;;;;5059404;28;20670;-62
2023/04/06 01:02:25;;;;;;;11.63;3.88;;;;;;;;;;5066738;28;20053;-60
2023/04/06 01:04:53;;;;;;;11.35;3.45;;;;;;;;;;5056290;28;20048;-61
2023/04/06 01:07:20;;;;;;;15.80;3.92;;;;;;;;;;5064060;28;20079;-61
2023/04/06 01:09:45;;;;;;;18.48;4.38;;;;;;;;;;5059301;28;20552;-61
2023/04/06 01:12:11;;;;;;;11.05;4.10;;;;;;;;;;5066641;28;20383;-61
2023/04/06 01:14:37;;;;;;;12.38;4.55;;;;;;;;;;5063343;28;20056;-71
2023/04/06 01:17:04;;;;;;;16.33;4.00;;;;;;;;;;5047786;28;20052;-61
2023/04/06 01:19:31;;;;;;;10.50;3.72;;;;;;;;;;5064013;28;20044;-65
2023/04/06 01:21:57;;;;;;;11.93;4.03;;;;;;;;;;5067337;28;20136;-60
2023/04/06 01:24:22;;;;;;;13.82;4.28;;;;;;;;;;5048374;28;20471;-61
2023/04/06 01:26:49;;;;;;;15.00;4.63;;;;;;;;;;5048473;28;20056;-63
2023/04/06 01:29:15;;;;;;;12.02;4.25;;;;;;;;;;5060518;28;20056;-61
2023/04/06 01:31:41;;;;;;;13.80;4.38;;;;;;;;;;5071378;28;20040;-61
2023/04/06 01:34:06;;;;;;;13.93;4.57;;;;;;;;;;5063297;28;20090;-60
2023/04/06 01:36:33;;;;;;;11.85;5.03;;;;;;;;;;5044038;28;20048;-61
2023/04/06 01:38:58;;;;;;;9.90;4.43;;;;;;;;;;5064935;28;20194;-60
2023/04/06 01:41:24;;;;;;;17.38;4.65;;;;;;;;;;5053199;28;20063;-62
2023/04/06 01:43:54;;;;;;;11.65;4.82;;;;;;;;;;5044353;28;20507;-61
2023/04/06 01:46:20;;;;;;;12.30;4.78;;;;;;;;;;5061040;28;20036;-61
2023/04/06 01:48:46;;;;;;;13.73;4.97;;;;;;;;;;5064153;28;20045;-63
2023/04/06 01:51:12;;;;;;;12.18;4.75;;;;;;;;;;5061533;28;20725;-64
2023/04/06 01:53:38;;;;;;;13.55;4.40;;;;;;;;;;5059287;28;20064;-61
2023/04/06 01:56:05;;;;;;;12.55;4.60;;;;;;;;;;5066075;28;20105;-62
2023/04/06 01:58:30;;;;;;;12.18;3.90;;;;;;;;;;5062265;28;20052;-62
2023/04/06 02:00:57;;;;;;;12.05;3.72;;;;;;;;;;5046723;28;20086;-61
2023/04/06 02:03:22;;;;;;;14.93;4.60;;;;;;;;;;5067105;28;20078;-61
2023/04/06 02:05:48;;;;;;;9.45;3.65;;;;;;;;;;5030605;28;20143;-60
2023/04/06 02:08:14;;;;;;;16.88;4.63;;;;;;;;;;5061494;28;20097;-62
2023/04/06 02:10:40;;;;;;;8.50;3.83;;;;;;;;;;5049678;28;20182;-60
2023/04/06 02:13:06;;;;;;;6.93;3.40;;;;;;;;;;5057431;28;20541;-61
2023/04/06 02:15:32;;;;;;;8.73;3.28;;;;;;;;;;5066616;28;20488;-60
2023/04/06 02:18:00;;;;;;;8.80;3.17;;;;;;;;;;5067068;28;20041;-61
2023/04/06 02:20:26;;;;;;;8.27;3.05;;;;;;;;;;5062457;28;20057;-60
2023/04/06 02:22:52;;;;;;;9.75;3.15;;;;;;;;;;5066641;28;20051;-64
2023/04/06 02:25:18;;;;;;;10.88;3.40;;;;;;;;;;5064840;28;20443;-61
2023/04/06 02:27:44;;;;;;;5.18;3.10;;;;;;;;;;5065762;28;20123;-60
2023/04/06 02:30:10;;;;;;;8.48;3.80;;;;;;;;;;5069273;28;20193;-61
2023/04/06 02:32:36;;;;;;;6.60;3.38;;;;;;;;;;5070655;28;20061;-60
2023/04/06 02:35:02;;;;;;;7.20;3.78;;;;;;;;;;5063659;28;20052;-61
2023/04/06 02:37:28;;;;;;;8.70;3.70;;;;;;;;;;5063571;28;20485;-60
2023/04/06 02:39:55;;;;;;;9.00;3.90;;;;;;;;;;5062595;28;20056;-61
2023/04/06 02:43:00;;;;;;;11.20;3.55;;;;;;;;;;5063090;28;20048;-62
2023/04/06 02:46:41;;;;;;;8.43;3.00;;;;;;;;;;5063380;28;20113;-62
2023/04/06 02:50:21;;;;;;;7.35;3.28;;;;;;;;;;5063748;28;20480;-61
2023/04/06 02:54:02;;;;;;;10.95;3.60;;;;;;;;;;5062728;28;20055;-60
2023/04/06 02:56:48;;;;;;;;;;;;;;;;;;5067006;28;20044;-61
2023/04/06 02:59:13;;;;;;;11.50;3.65;;;;;;;;;;5067638;28;19927;-61
2023/04/06 03:01:39;;;;;;;7.75;3.05;;;;;;;;;;5061855;28;20057;-60
2023/04/06 03:04:07;;;;;;;8.45;3.30;;;;;;;;;;5066279;28;20117;-61
2023/04/06 03:06:33;;;;;;;12.70;3.30;;;;;;;;;;5064084;28;20687;-61
2023/04/06 03:08:59;;;;;;;5.90;3.10;;;;;;;;;;5067782;28;20039;-60
2023/04/06 03:11:26;;;;;;;8.75;3.13;;;;;;;;;;5058865;28;20110;-61
2023/04/06 03:13:52;;;;;;;4.88;2.90;;;;;;;;;;5067887;28;20040;-60
2023/04/06 03:16:18;;;;;;;6.63;2.80;;;;;;;;;;5051308;28;20045;-61
2023/04/06 03:18:47;;;;;;;6.97;3.20;;;;;;;;;;5067708;28;20113;-62
2023/04/06 03:21:53;;;;;;;8.77;3.08;;;;;;;;;;5063497;28;20049;-62
2023/04/06 03:24:53;;;;;;;9.75;3.30;;;;;;;;;;5060753;28;20045;-60
2023/04/06 03:27:19;;;;;;;10.52;3.33;;;;;;;;;;5038019;28;20056;-60
2023/04/06 03:29:45;;;;;;;9.88;3.33;;;;;;;;;;5058531;28;20063;-62
2023/04/06 03:32:11;;;;;;;5.38;2.50;;;;;;;;;;5063460;28;20048;-61
2023/04/06 03:34:38;;;;;;;9.73;3.30;;;;;;;;;;5063154;28;20056;-60
2023/04/06 03:37:05;;;;;;;8.10;3.20;;;;;;;;;;5065618;28;20115;-62
2023/04/06 03:39:31;;;;;;;7.15;2.90;;;;;;;;;;5076259;28;20480;-60
2023/04/06 03:41:57;;;;;;;13.50;2.97;;;;;;;;;;5065232;28;20048;-61
2023/04/06 03:44:23;;;;;;;5.80;2.92;;;;;;;;;;5063134;28;20281;-60
2023/04/06 03:46:49;;;;;;;6.40;2.78;;;;;;;;;;5065365;28;20055;-60
2023/04/06 03:49:15;;;;;;;6.95;3.10;;;;;;;;;;5069695;28;20503;-61
2023/04/06 03:51:41;;;;;;;7.65;3.20;;;;;;;;;;5063595;28;20125;-61
2023/04/06 03:54:07;;;;;;;5.70;3.40;;;;;;;;;;5066289;28;20515;-62
2023/04/06 03:56:33;;;;;;;6.28;3.22;;;;;;;;;;5064971;28;20049;-63
2023/04/06 03:58:59;;;;;;;8.55;3.13;;;;;;;;;;5063891;28;20385;-62
2023/04/06 04:01:25;;;;;;;8.77;3.00;;;;;;;;;;5058094;28;20041;-61
2023/04/06 04:03:52;;;;;;;10.55;3.10;;;;;;;;;;5038619;28;20389;-65
2023/04/06 04:06:18;;;;;;;8.20;2.75;;;;;;;;;;5057751;28;20060;-61
2023/04/06 04:08:44;;;;;;;5.72;3.25;;;;;;;;;;5056187;28;20044;-63
2023/04/06 04:11:10;;;;;;;13.38;3.28;;;;;;;;;;5063536;28;20105;-60
2023/04/06 04:13:36;;;;;;;8.85;3.42;;;;;;;;;;5063833;28;20521;-61
2023/04/06 04:16:02;;;;;;;9.98;3.60;;;;;;;;;;5065168;28;20052;-61
2023/04/06 04:18:27;;;;;;;5.82;3.40;;;;;;;;;;5053433;28;20416;-61
2023/04/06 04:20:54;;;;;;;7.35;3.70;;;;;;;;;;5061554;28;20387;-60
2023/04/06 04:23:20;;;;;;;9.10;4.03;;;;;;;;;;5058546;28;20480;-62
2023/04/06 04:25:46;;;;;;;7.53;4.00;;;;;;;;;;5045056;28;20037;-60
2023/04/06 04:28:11;;;;;;;13.63;4.30;;;;;;;;;;5060787;28;20052;-62
2023/04/06 04:30:37;;;;;;;11.60;4.10;;;;;;;;;;5057724;28;20389;-61
2023/04/06 04:33:03;;;;;;;7.18;4.07;;;;;;;;;;5055690;28;20051;-62
2023/04/06 04:36:10;;;;;;;12.02;4.68;;;;;;;;;;5063347;28;20099;-63
2023/04/06 04:39:50;;;;;;;8.88;3.83;;;;;;;;;;5061732;28;20360;-61
2023/04/06 04:43:30;;;;;;;9.05;3.97;;;;;;;;;;5061118;28;20276;-64
2023/04/06 04:47:10;;;;;;;10.18;3.75;;;;;;;;;;5054524;28;20488;-62
2023/04/06 04:50:50;;;;;;;10.35;3.85;;;;;;;;;;5065227;28;20063;-62
2023/04/06 04:54:31;;;;;;;5.78;3.42;;;;;;;;;;5062938;28;20062;-63
2023/04/06 04:58:15;;;;;;;6.40;3.47;;;;;;;;;;5055672;28;20044;-63
2023/04/06 05:01:51;;;;;;;7.10;3.97;;;;;;;;;;5063859;28;20526;-61
2023/04/06 05:05:32;;;;;;;13.93;4.70;;;;;;;;;;5059109;28;20055;-61
2023/04/06 05:09:12;;;;;;;9.93;4.72;;;;;;;;;;5061571;28;20045;-65
2023/04/06 05:12:52;;;;;;;12.23;4.70;;;;;;;;;;5060709;28;20467;-64
2023/04/06 05:16:33;;;;;;;9.00;4.47;;;;;;;;;;5063348;28;20045;-64
2023/04/06 05:20:13;;;;;;;7.45;3.75;;;;;;;;;;5057122;28;20056;-63
2023/04/06 05:23:53;;;;;;;17.60;4.22;;;;;;;;;;5066355;28;20048;-62
2023/04/06 05:27:34;;;;;;;10.88;3.70;;;;;;;;;;5056726;28;20048;-65
2023/04/06 05:31:14;;;;;;;11.68;4.38;;;;;;;;;;5062425;28;20094;-64
2023/04/06 05:34:55;;;;;;;9.93;4.00;;;;;;;;;;5069666;28;20052;-62
2023/04/06 05:38:35;;;;;;;12.45;3.75;;;;;;;;;;5061982;28;20048;-61
2023/04/06 05:42:15;;;;;;;6.38;2.80;;;;;;;;;;5061256;28;20740;-57
2023/04/06 05:45:56;;;;;;;9.65;3.35;;;;;;;;;;5061537;28;20057;-60
2023/04/06 05:49:36;;;;;;;7.53;3.47;;;;;;;;;;5060985;28;20044;-63
2023/04/06 05:53:17;;;;;;;14.98;3.13;;;;;;;;;;5055867;28;20084;-64
2023/04/06 05:56:57;;;;;;;8.02;3.95;;;;;;;;;;5063836;28;20056;-66
2023/04/06 06:00:37;;;;;;;11.63;3.72;;;;;;;;;;5060786;28;20400;-63
2023/04/06 06:04:17;;;;;;;11.90;3.30;;;;;;;;;;5053077;28;20128;-58
2023/04/06 06:07:58;;;;;;;12.80;4.88;;;;;;;;;;5063611;28;20131;-58
2023/04/06 06:11:38;;;;;;;9.02;3.50;;;;;;;;;;5066978;28;20040;-60
